Terminal Aerodrome Forecast
Issued by NWS

Home | Current Version | Previous Version | Text Only | Print | Product List | Glossary On
Versions: 1 2 3 4 5 6 7 8 9 10 11 12
000
FTUS45 KLKN 262320
TAFWMC
TAF
KWMC 262320Z 2700/2724 VRB06KT P6SM SKC
      TEMPO 2700/2702 28007G17KT
     FM271800 28008G18KT P6SM SKC=

USA.gov is the U.S. government's official web portal to all federal, state and local government web resources and services.